Time;durP1;ratioP1;P1;durP2;ratioP2;P2;SDS_P1;SDS_P2;PMS_P1;PMS_P2;Temp;Humidity;BMP_temperature;BMP_pressure;BME280_temperature;BME280_humidity;BME280_pressure;Samples;Min_cycle;Max_cycle;Signal;HPM_P1;HPM_P2
2023/11/12 00:02:13;;;;;;;;;;;;;;;30.33;66.23;101131.16;5078382;27;71056;-32
2023/11/12 00:04:43;;;;;;;;;;;;;;;30.36;65.76;101133.44;5097440;27;67152;-33
2023/11/12 00:07:13;;;;;;;;;;;;;;;30.37;66.68;101146.75;5082156;27;70444;-30
2023/11/12 00:09:44;;;;;;;;;;;;;;;30.38;67.08;101153.00;5086948;27;67059;-33
2023/11/12 00:12:14;;;;;;;;;;;;;;;30.41;67.08;101163.41;5093510;27;70475;-32
2023/11/12 00:14:45;;;;;;;;;;;;;;;30.42;67.16;101159.63;5095454;27;66716;-32
2023/11/12 00:17:16;;;;;;;;;;;;;;;30.45;67.61;101159.22;5086926;27;69216;-31
2023/11/12 00:19:45;;;;;;;;;;;;;;;30.48;68.67;101169.66;5084089;27;66736;-33
2023/11/12 00:22:16;;;;;;;;;;;;;;;30.50;68.73;101167.53;5086824;27;70119;-33
2023/11/12 00:24:46;;;;;;;;;;;;;;;30.53;68.98;101163.59;5093275;27;66666;-33
2023/11/12 00:27:18;;;;;;;;;;;;;;;30.55;68.59;101170.44;5088942;27;69758;-33
2023/11/12 00:29:48;;;;;;;;;;;;;;;30.58;70.11;101171.91;5071530;27;66514;-33
2023/11/12 00:32:17;;;;;;;;;;;;;;;30.60;70.03;101176.06;5087492;27;70914;-35
2023/11/12 00:34:47;;;;;;;;;;;;;;;30.59;71.50;101187.97;5090922;27;65964;-36
2023/11/12 00:37:18;;;;;;;;;;;;;;;30.58;73.10;101190.88;5090619;27;70316;-34
2023/11/12 00:39:48;;;;;;;;;;;;;;;30.53;73.57;101188.78;5090094;27;66745;-34
2023/11/12 00:42:17;;;;;;;;;;;;;;;30.53;74.10;101194.19;5088735;27;69917;-34
2023/11/12 00:44:47;;;;;;;;;;;;;;;30.54;73.89;101200.47;5088175;27;65032;-34
2023/11/12 00:47:17;;;;;;;;;;;;;;;30.58;70.49;101196.28;5072151;27;70701;-33
2023/11/12 00:49:47;;;;;;;;;;;;;;;30.60;68.51;101183.38;5098574;27;65583;-33
2023/11/12 00:52:17;;;;;;;;;;;;;;;30.62;66.96;101192.09;5096534;27;71181;-33
2023/11/12 00:54:47;;;;;;;;;;;;;;;30.65;66.16;101195.22;5080389;27;66319;-33
2023/11/12 00:57:16;;;;;;;;;;;;;;;30.66;65.54;101202.28;5092982;27;70259;-33
2023/11/12 00:59:46;;;;;;;;;;;;;;;30.69;65.22;101209.16;5095954;27;66889;-33
2023/11/12 01:02:17;;;;;;;;;;;;;;;30.70;67.73;101206.25;5065691;27;69792;-33
2023/11/12 01:04:47;;;;;;;;;;;;;;;30.72;67.14;101215.00;5077450;27;67229;-33
2023/11/12 01:07:17;;;;;;;;;;;;;;;30.77;70.15;101221.66;5080264;27;70602;-32
2023/11/12 01:09:47;;;;;;;;;;;;;;;30.80;68.37;101221.25;5082003;27;66333;-33
2023/11/12 01:12:19;;;;;;;;;;;;;;;30.79;69.04;101217.69;5088538;27;70884;-34
2023/11/12 01:14:52;;;;;;;;;;;;;;;30.80;69.29;101232.94;5091426;27;66166;-33
2023/11/12 01:17:22;;;;;;;;;;;;;;;30.85;70.81;101241.25;5092507;27;69614;-32
2023/11/12 01:19:52;;;;;;;;;;;;;;;30.84;69.03;101241.44;5073496;27;66729;-32
2023/11/12 01:22:22;;;;;;;;;;;;;;;30.84;69.96;101245.03;5096849;27;70458;-33
2023/11/12 01:24:52;;;;;;;;;;;;;;;30.86;68.63;101244.78;5075898;27;66992;-33
2023/11/12 01:27:22;;;;;;;;;;;;;;;30.90;67.99;101254.16;5093628;27;70076;-34
2023/11/12 01:29:52;;;;;;;;;;;;;;;30.90;68.51;101256.88;5093189;27;66344;-34
2023/11/12 01:32:22;;;;;;;;;;;;;;;30.92;69.03;101254.78;5079181;27;70188;-34
2023/11/12 01:34:52;;;;;;;;;;;;;;;30.96;69.13;101257.91;5077951;27;67149;-34
2023/11/12 01:37:22;;;;;;;;;;;;;;;30.93;69.54;101259.16;5075333;27;70677;-34
2023/11/12 01:39:52;;;;;;;;;;;;;;;30.99;69.01;101263.72;5097915;27;66600;-34
2023/11/12 01:42:23;;;;;;;;;;;;;;;31.01;71.32;101263.50;5076264;27;70333;-34
2023/11/12 01:44:53;;;;;;;;;;;;;;;31.03;69.21;101274.97;5102690;27;66309;-33
2023/11/12 01:47:23;;;;;;;;;;;;;;;31.05;69.05;101283.72;5101919;27;70561;-34
2023/11/12 01:49:52;;;;;;;;;;;;;;;31.07;68.34;101287.88;5083274;27;66753;-35
2023/11/12 01:52:22;;;;;;;;;;;;;;;31.08;68.18;101294.97;5101595;27;70033;-35
2023/11/12 01:54:53;;;;;;;;;;;;;;;31.10;70.36;101287.47;5083999;27;65639;-34
2023/11/12 01:57:23;;;;;;;;;;;;;;;31.10;67.82;101290.16;5100720;27;69808;-35
2023/11/12 01:59:53;;;;;;;;;;;;;;;31.15;68.77;101284.13;5081476;27;67105;-34
2023/11/12 02:02:24;;;;;;;;;;;;;;;31.15;68.28;101289.53;5081950;27;71020;-34
2023/11/12 02:04:54;;;;;;;;;;;;;;;31.19;67.18;101281.81;5078884;27;67073;-34
2023/11/12 02:07:25;;;;;;;;;;;;;;;31.21;66.60;101282.44;5082724;27;70658;-33
2023/11/12 02:10:04;;;;;;;;;;;;;;;31.19;67.94;101284.53;5082697;27;67433;-34
2023/11/12 02:12:37;;;;;;;;;;;;;;;31.17;66.57;101287.44;5100110;27;69662;-35
2023/11/12 02:15:07;;;;;;;;;;;;;;;31.20;66.46;101286.19;5079357;27;66701;-35
2023/11/12 02:17:37;;;;;;;;;;;;;;;31.24;65.66;101287.44;5101360;27;70630;-34
2023/11/12 02:20:08;;;;;;;;;;;;;;;31.27;65.62;101289.72;5082701;27;67163;-32
2023/11/12 02:22:38;;;;;;;;;;;;;;;31.30;65.30;101286.56;5102012;27;69239;-34
2023/11/12 02:25:09;;;;;;;;;;;;;;;31.31;64.99;101290.94;5101565;27;66305;-34
2023/11/12 02:27:39;;;;;;;;;;;;;;;31.34;65.04;101285.09;5096529;27;70493;-33
2023/11/12 02:30:09;;;;;;;;;;;;;;;31.36;64.83;101291.16;5102014;27;66717;-34
2023/11/12 02:32:40;;;;;;;;;;;;;;;31.37;64.75;101285.53;5083642;27;70604;-34
2023/11/12 02:35:11;;;;;;;;;;;;;;;31.40;64.49;101289.72;5083442;27;67590;-33
2023/11/12 02:37:41;;;;;;;;;;;;;;;31.42;64.70;101284.88;5097131;27;69894;-34
2023/11/12 02:40:14;;;;;;;;;;;;;;;31.44;64.27;101281.97;5100306;27;59931;-34
2023/11/12 02:42:44;;;;;;;;;;;;;;;31.47;64.24;101289.66;5102032;27;70243;-35
2023/11/12 02:45:14;;;;;;;;;;;;;;;31.49;64.00;101280.28;5087308;27;66055;-33
2023/11/12 02:47:44;;;;;;;;;;;;;;;31.51;64.12;101277.34;5080019;27;70231;-34
2023/11/12 02:50:27;;;;;;;;;;;;;;;31.53;64.06;101276.06;5102109;27;67321;-34
2023/11/12 02:53:00;;;;;;;;;;;;;;;31.55;64.00;101268.56;5095282;27;70114;-35
2023/11/12 02:55:30;;;;;;;;;;;;;;;31.57;63.74;101266.47;5080145;27;67073;-35
2023/11/12 02:58:00;;;;;;;;;;;;;;;31.60;63.70;101266.03;5079670;27;70476;-33
2023/11/12 03:00:31;;;;;;;;;;;;;;;31.61;63.54;101259.56;5065928;27;65563;-35
2023/11/12 03:03:01;;;;;;;;;;;;;;;31.64;63.48;101250.16;5101469;27;70633;-34
2023/11/12 03:05:32;;;;;;;;;;;;;;;31.65;63.44;101251.84;5101324;27;66340;-34
2023/11/12 03:08:02;;;;;;;;;;;;;;;31.69;63.42;101253.06;5099482;27;70035;-34
2023/11/12 03:10:32;;;;;;;;;;;;;;;31.70;63.47;101238.44;5100921;27;66828;-33
2023/11/12 03:13:02;;;;;;;;;;;;;;;31.74;63.34;101244.28;5082859;27;70434;-34
2023/11/12 03:15:34;;;;;;;;;;;;;;;31.75;63.19;101229.66;5082274;27;66485;-34
2023/11/12 03:18:04;;;;;;;;;;;;;;;31.77;63.21;101222.16;5081180;27;69978;-35
2023/11/12 03:20:34;;;;;;;;;;;;;;;31.78;63.40;101218.38;5083107;27;65186;-34
2023/11/12 03:23:04;;;;;;;;;;;;;;;31.81;62.81;101212.50;5099381;27;71742;-35
2023/11/12 03:25:34;;;;;;;;;;;;;;;31.84;62.92;101217.50;5101834;27;66385;-35
2023/11/12 03:28:04;;;;;;;;;;;;;;;31.86;62.89;101209.97;5098449;27;70327;-34
2023/11/12 03:30:33;;;;;;;;;;;;;;;31.87;62.79;101210.78;5063465;27;66265;-34
2023/11/12 03:33:04;;;;;;;;;;;;;;;31.89;62.63;101198.69;5100859;27;70408;-35
2023/11/12 03:35:36;;;;;;;;;;;;;;;31.91;62.60;101193.91;5099997;27;65972;-34
2023/11/12 03:38:06;;;;;;;;;;;;;;;31.93;62.69;101189.09;5096050;27;70786;-35
2023/11/12 03:40:37;;;;;;;;;;;;;;;31.81;62.70;101190.81;5094394;27;66493;-35
2023/11/12 03:43:07;;;;;;;;;;;;;;;31.75;62.49;101188.97;5095475;27;70810;-34
2023/11/12 03:45:37;;;;;;;;;;;;;;;31.73;62.76;101188.34;5093863;27;67148;-38
2023/11/12 03:48:10;;;;;;;;;;;;;;;31.70;62.42;101184.19;5089239;27;70756;-35
2023/11/12 03:50:40;;;;;;;;;;;;;;;31.71;62.38;101176.91;5053940;27;66064;-35
2023/11/12 03:53:09;;;;;;;;;;;;;;;31.69;61.93;101171.69;5055612;27;70349;-36
2023/11/12 03:55:39;;;;;;;;;;;;;;;31.73;62.10;101155.81;5096494;27;65940;-35
2023/11/12 03:58:09;;;;;;;;;;;;;;;31.70;61.75;101145.41;5075210;27;70678;-36
2023/11/12 04:00:39;;;;;;;;;;;;;;;31.72;61.99;101143.31;5052313;27;65190;-35
2023/11/12 04:03:09;;;;;;;;;;;;;;;31.74;61.52;101135.78;5089673;27;70598;-35
2023/11/12 04:05:39;;;;;;;;;;;;;;;31.78;60.24;101126.16;5093243;27;66951;-36
2023/11/12 04:08:09;;;;;;;;;;;;;;;31.86;59.02;101123.16;5093265;27;70166;-35
2023/11/12 04:10:39;;;;;;;;;;;;;;;31.94;57.36;101125.63;5083547;27;65735;-34
2023/11/12 04:13:10;;;;;;;;;;;;;;;32.02;57.30;101129.94;5094465;27;70041;-35
2023/11/12 04:15:40;;;;;;;;;;;;;;;32.05;57.16;101114.06;5097601;27;66737;-34
2023/11/12 04:18:10;;;;;;;;;;;;;;;32.12;56.42;101105.00;5071697;27;70283;-36
2023/11/12 04:20:40;;;;;;;;;;;;;;;32.19;56.37;101097.66;5091997;27;66906;-37
2023/11/12 04:23:10;;;;;;;;;;;;;;;32.22;56.76;101099.91;5097603;27;70132;-34
2023/11/12 04:25:41;;;;;;;;;;;;;;;32.28;57.40;101096.28;5086878;27;66540;-38
2023/11/12 04:28:12;;;;;;;;;;;;;;;32.35;57.75;101088.91;5070471;27;69353;-35
2023/11/12 04:30:42;;;;;;;;;;;;;;;32.40;58.39;101091.78;5091905;27;66792;-34
2023/11/12 04:33:12;;;;;;;;;;;;;;;32.43;58.41;101085.91;5068189;27;70589;-34
2023/11/12 04:35:42;;;;;;;;;;;;;;;32.48;58.63;101082.53;5092133;27;66719;-34
2023/11/12 04:38:12;;;;;;;;;;;;;;;32.56;58.72;101084.13;5089159;27;70650;-36
2023/11/12 04:40:48;;;;;;;;;;;;;;;32.59;58.58;101080.94;5097032;27;66094;-38
2023/11/12 04:43:18;;;;;;;;;;;;;;;32.60;58.33;101069.03;5092215;27;69153;-36
2023/11/12 04:45:49;;;;;;;;;;;;;;;32.61;58.32;101054.38;5079653;27;66178;-36
2023/11/12 04:48:19;;;;;;;;;;;;;;;32.64;58.05;101053.94;5079492;27;69064;-35
2023/11/12 04:50:49;;;;;;;;;;;;;;;32.65;58.23;101040.13;5097250;27;67054;-34
2023/11/12 04:53:18;;;;;;;;;;;;;;;32.66;58.05;101049.09;5095074;27;70282;-34
2023/11/12 04:55:48;;;;;;;;;;;;;;;32.75;58.24;101039.56;5099412;27;66939;-34
2023/11/12 04:58:18;;;;;;;;;;;;;;;32.82;58.59;101026.75;5101964;27;70822;-34
2023/11/12 05:00:48;;;;;;;;;;;;;;;32.86;58.64;101038.78;5103338;27;66894;-35
2023/11/12 05:03:17;;;;;;;;;;;;;;;32.59;58.21;100991.31;5103654;27;70432;-34
2023/11/12 05:05:47;;;;;;;;;;;;;;;32.91;58.43;101028.06;5088886;27;66681;-33
2023/11/12 05:08:17;;;;;;;;;;;;;;;32.93;58.15;101017.81;5080298;27;69402;-34
2023/11/12 05:10:46;;;;;;;;;;;;;;;32.94;57.92;101016.75;5103778;27;67069;-34
2023/11/12 05:13:16;;;;;;;;;;;;;;;32.96;58.11;101008.38;5101862;27;70386;-35
2023/11/12 05:15:46;;;;;;;;;;;;;;;32.98;58.07;100999.97;5104140;27;66434;-34
2023/11/12 05:18:16;;;;;;;;;;;;;;;32.99;58.15;100999.75;5103219;27;70003;-35
2023/11/12 05:20:46;;;;;;;;;;;;;;;33.01;57.82;100996.81;5083829;27;66770;-35
2023/11/12 05:23:16;;;;;;;;;;;;;;;32.83;57.35;100979.50;5097730;27;69747;-35
2023/11/12 05:25:46;;;;;;;;;;;;;;;32.70;58.62;100983.22;5100980;27;66817;-34
2023/11/12 05:28:16;;;;;;;;;;;;;;;32.66;59.01;100981.22;5087029;27;70530;-34
2023/11/12 05:30:46;;;;;;;;;;;;;;;32.61;59.71;100975.63;5091436;27;66838;-35
2023/11/12 05:33:16;;;;;;;;;;;;;;;32.60;60.07;100982.97;5095351;27;70127;-33
2023/11/12 05:35:45;;;;;;;;;;;;;;;32.61;60.82;100972.91;5096363;27;66392;-35
2023/11/12 05:38:15;;;;;;;;;;;;;;;32.60;60.97;100965.84;5095107;27;70523;-35
2023/11/12 05:40:45;;;;;;;;;;;;;;;32.60;61.18;100965.84;5096429;27;66588;-34
2023/11/12 05:43:15;;;;;;;;;;;;;;;32.61;61.05;100959.34;5078807;27;69916;-34
2023/11/12 05:45:45;;;;;;;;;;;;;;;32.62;60.89;100953.66;5098003;27;65783;-35
2023/11/12 05:48:15;;;;;;;;;;;;;;;32.60;60.56;100949.53;5093068;27;70682;-33
2023/11/12 05:50:45;;;;;;;;;;;;;;;32.58;60.61;100940.78;5087105;27;66369;-34
2023/11/12 05:53:14;;;;;;;;;;;;;;;32.59;61.02;100928.84;5069474;27;70047;-33
2023/11/12 05:55:44;;;;;;;;;;;;;;;32.61;61.28;100932.19;5093665;27;66794;-33
2023/11/12 05:58:14;;;;;;;;;;;;;;;32.62;61.63;100931.09;5098591;27;70829;-33
2023/11/12 06:00:44;;;;;;;;;;;;;;;32.62;62.09;100922.97;5098096;27;67268;-33
2023/11/12 06:03:13;;;;;;;;;;;;;;;32.61;62.32;100922.13;5100914;27;68413;-34
2023/11/12 06:05:43;;;;;;;;;;;;;;;32.53;61.34;100916.22;5101640;27;66661;-35
2023/11/12 06:08:13;;;;;;;;;;;;;;;32.43;60.14;100909.44;5093437;27;70662;-36
2023/11/12 06:10:43;;;;;;;;;;;;;;;32.30;58.75;100906.88;5103463;27;67062;-33
2023/11/12 06:13:13;;;;;;;;;;;;;;;32.24;57.34;100891.53;5102141;27;69959;-34
2023/11/12 06:15:42;;;;;;;;;;;;;;;32.22;56.83;100893.63;5094786;27;67083;-33
2023/11/12 06:18:12;;;;;;;;;;;;;;;32.12;55.51;100893.34;5084600;27;70603;-33
2023/11/12 06:20:42;;;;;;;;;;;;;;;32.09;55.05;100888.38;5094156;27;66124;-34
2023/11/12 06:23:12;;;;;;;;;;;;;;;32.02;54.22;100883.03;5102717;27;69932;-33
2023/11/12 06:25:42;;;;;;;;;;;;;;;31.99;53.50;100878.06;5094323;27;66675;-34
2023/11/12 06:28:11;;;;;;;;;;;;;;;31.97;53.02;100863.91;5101084;27;69966;-33
2023/11/12 06:30:41;;;;;;;;;;;;;;;31.88;52.45;100866.06;5079511;27;66402;-33
2023/11/12 06:33:11;;;;;;;;;;;;;;;31.85;52.18;100863.81;5097827;27;69527;-34
2023/11/12 06:35:40;;;;;;;;;;;;;;;31.82;51.59;100848.00;5101340;27;67221;-33
2023/11/12 06:38:11;;;;;;;;;;;;;;;31.82;51.28;100850.72;5101681;27;70006;-34
2023/11/12 06:40:41;;;;;;;;;;;;;;;31.79;50.93;100843.03;5102363;27;66265;-33
2023/11/12 06:43:11;;;;;;;;;;;;;;;31.76;50.39;100848.88;5083367;27;70144;-34
2023/11/12 06:45:40;;;;;;;;;;;;;;;31.70;50.26;100831.63;5106943;27;66042;-33
2023/11/12 06:48:10;;;;;;;;;;;;;;;31.67;50.18;100832.09;5101877;27;70777;-34
2023/11/12 06:50:40;;;;;;;;;;;;;;;31.65;49.64;100830.66;5101102;27;67201;-34
2023/11/12 06:53:10;;;;;;;;;;;;;;;31.67;49.40;100831.25;5101356;27;70302;-33
2023/11/12 06:55:40;;;;;;;;;;;;;;;31.65;49.16;100833.38;5101073;27;66717;-34
2023/11/12 06:58:10;;;;;;;;;;;;;;;31.61;48.94;100822.97;5094443;27;70067;-36
2023/11/12 07:00:39;;;;;;;;;;;;;;;31.63;49.17;100825.47;5084030;27;66065;-36
2023/11/12 07:03:11;;;;;;;;;;;;;;;31.59;48.73;100819.69;5101819;27;71072;-34
2023/11/12 07:05:42;;;;;;;;;;;;;;;31.61;48.75;100811.31;5101456;27;67171;-34
2023/11/12 07:08:12;;;;;;;;;;;;;;;31.61;48.47;100801.28;5100973;27;70717;-34
2023/11/12 07:10:43;;;;;;;;;;;;;;;31.64;48.54;100793.75;5102194;27;66085;-33
2023/11/12 07:13:15;;;;;;;;;;;;;;;31.66;48.54;100786.22;5100809;27;69245;-32
2023/11/12 07:15:45;;;;;;;;;;;;;;;31.70;48.44;100787.41;5101902;27;65767;-35
2023/11/12 07:18:15;;;;;;;;;;;;;;;31.73;48.66;100781.53;5102171;27;70394;-34
2023/11/12 07:20:45;;;;;;;;;;;;;;;31.74;48.18;100777.78;5095374;27;66114;-33
2023/11/12 07:23:14;;;;;;;;;;;;;;;31.80;48.11;100779.56;5094909;27;69627;-35
2023/11/12 07:25:44;;;;;;;;;;;;;;;31.79;48.06;100764.38;5090284;27;65898;-34
2023/11/12 07:28:14;;;;;;;;;;;;;;;31.84;47.90;100769.91;5063107;27;70782;-35
2023/11/12 07:30:44;;;;;;;;;;;;;;;31.86;47.71;100759.66;5096773;27;65684;-33
2023/11/12 07:33:13;;;;;;;;;;;;;;;31.90;47.96;100754.59;5089290;27;69777;-35
2023/11/12 07:35:43;;;;;;;;;;;;;;;31.88;47.92;100745.88;5099111;27;67140;-36
2023/11/12 07:38:13;;;;;;;;;;;;;;;31.93;47.92;100737.88;5074362;27;70348;-34
2023/11/12 07:40:42;;;;;;;;;;;;;;;31.91;48.06;100737.28;5094401;27;67266;-37
2023/11/12 07:43:14;;;;;;;;;;;;;;;31.97;47.67;100722.81;5096558;27;70677;-33
2023/11/12 07:45:44;;;;;;;;;;;;;;;32.02;47.79;100729.22;5079645;27;66334;-33
2023/11/12 07:48:14;;;;;;;;;;;;;;;32.05;47.92;100722.50;5095968;27;70412;-32
2023/11/12 07:50:44;;;;;;;;;;;;;;;32.07;47.66;100727.66;5093705;27;67222;-34
2023/11/12 07:53:13;;;;;;;;;;;;;;;32.08;47.46;100723.91;5093850;27;70482;-34
2023/11/12 07:55:43;;;;;;;;;;;;;;;32.11;47.54;100728.88;5095803;27;66633;-34
2023/11/12 07:58:13;;;;;;;;;;;;;;;32.13;47.34;100724.06;5095071;27;71124;-33
2023/11/12 08:00:43;;;;;;;;;;;;;;;32.20;47.17;100727.47;5089713;27;65412;-33
2023/11/12 08:03:13;;;;;;;;;;;;;;;32.22;47.11;100728.06;5094554;27;70548;-32
2023/11/12 08:05:43;;;;;;;;;;;;;;;32.24;47.06;100731.38;5098233;27;67508;-33
2023/11/12 08:08:13;;;;;;;;;;;;;;;32.25;46.87;100722.16;5095167;27;70690;-34
2023/11/12 08:10:42;;;;;;;;;;;;;;;32.31;47.01;100734.81;5092817;27;67357;-34
2023/11/12 08:13:15;;;;;;;;;;;;;;;32.32;46.87;100736.47;5094856;27;70552;-32
2023/11/12 08:15:45;;;;;;;;;;;;;;;32.37;46.76;100736.56;5095742;27;65566;-34
2023/11/12 08:18:15;;;;;;;;;;;;;;;32.40;46.49;100733.41;5094018;27;70158;-33
2023/11/12 08:20:45;;;;;;;;;;;;;;;32.41;46.32;100734.25;5095488;27;65909;-33
2023/11/12 08:23:14;;;;;;;;;;;;;;;32.46;46.39;100737.94;5098209;27;70090;-32
2023/11/12 08:25:44;;;;;;;;;;;;;;;32.47;45.99;100739.59;5101577;27;66528;-34
2023/11/12 08:28:15;;;;;;;;;;;;;;;32.48;46.11;100735.81;5097531;27;69714;-33
2023/11/12 08:30:48;;;;;;;;;;;;;;;32.52;46.30;100736.19;5100404;27;66778;-33
2023/11/12 08:33:18;;;;;;;;;;;;;;;32.51;45.86;100739.94;5100283;27;70547;-32
2023/11/12 08:35:48;;;;;;;;;;;;;;;32.54;45.97;100747.63;5094844;27;67233;-32
2023/11/12 08:38:18;;;;;;;;;;;;;;;32.49;45.94;100752.94;5100979;27;70908;-33
2023/11/12 08:40:48;;;;;;;;;;;;;;;32.52;46.08;100751.66;5094635;27;66577;-33
2023/11/12 08:43:19;;;;;;;;;;;;;;;32.49;46.07;100767.34;5100455;27;70064;-34
2023/11/12 08:45:48;;;;;;;;;;;;;;;32.51;46.54;100763.53;5101438;27;66010;-34
2023/11/12 08:48:20;;;;;;;;;;;;;;;32.62;49.56;100763.56;5097502;27;70693;-35
2023/11/12 08:50:50;;;;;;;;;;;;;;;32.79;51.59;100757.41;5079205;27;66078;-34
2023/11/12 08:53:20;;;;;;;;;;;;;;;32.88;53.24;100762.28;5077518;27;70253;-34
2023/11/12 08:55:50;;;;;;;;;;;;;;;32.94;54.72;100766.75;5066547;27;65941;-37
2023/11/12 08:58:21;;;;;;;;;;;;;;;33.05;55.39;100764.31;5069891;27;69768;-35
2023/11/12 09:00:51;;;;;;;;;;;;;;;33.11;55.74;100776.94;5078639;27;66137;-36
2023/11/12 09:03:22;;;;;;;;;;;;;;;33.31;55.63;100788.25;5093737;27;69923;-35
2023/11/12 09:05:52;;;;;;;;;;;;;;;33.58;52.13;100793.19;5093444;27;66167;-35
2023/11/12 09:08:22;;;;;;;;;;;;;;;33.72;50.73;100797.28;5085601;27;69778;-34
2023/11/12 09:10:52;;;;;;;;;;;;;;;33.83;49.99;100800.22;5098116;27;66044;-36
2023/11/12 09:13:22;;;;;;;;;;;;;;;33.91;50.45;100802.56;5085599;27;69996;-34
2023/11/12 09:15:51;;;;;;;;;;;;;;;33.98;50.28;100814.09;5104452;27;67002;-35
2023/11/12 09:18:22;;;;;;;;;;;;;;;34.04;50.61;100824.00;5099951;27;71261;-34
2023/11/12 09:20:55;;;;;;;;;;;;;;;34.08;50.40;100824.41;5096795;27;66774;-35
2023/11/12 09:23:25;;;;;;;;;;;;;;;34.12;50.22;100826.38;5101092;27;70583;-35
2023/11/12 09:25:55;;;;;;;;;;;;;;;34.14;50.94;100826.97;5102672;27;66716;-34
2023/11/12 09:28:25;;;;;;;;;;;;;;;34.16;51.57;100824.81;5102033;27;69933;-34
2023/11/12 09:30:54;;;;;;;;;;;;;;;34.18;52.08;100819.13;5101664;27;67097;-34
2023/11/12 09:33:28;;;;;;;;;;;;;;;34.21;51.83;100824.94;5102319;27;69376;-33
2023/11/12 09:35:58;;;;;;;;;;;;;;;34.24;52.36;100819.00;5101766;27;66889;-33
2023/11/12 09:38:28;;;;;;;;;;;;;;;34.24;52.58;100819.00;5102330;27;70861;-33
2023/11/12 09:40:58;;;;;;;;;;;;;;;34.25;52.50;100817.91;5102767;27;65873;-34
2023/11/12 09:43:29;;;;;;;;;;;;;;;34.28;52.63;100815.78;5100649;27;68987;-34
2023/11/12 09:45:59;;;;;;;;;;;;;;;34.26;52.79;100822.28;5102545;27;66061;-34
2023/11/12 09:48:35;;;;;;;;;;;;;;;34.25;52.93;100828.78;5084580;27;70114;-33
2023/11/12 09:51:06;;;;;;;;;;;;;;;34.28;52.93;100832.09;5102706;27;65576;-34
2023/11/12 09:53:39;;;;;;;;;;;;;;;34.26;53.55;100826.88;5100396;27;70427;-33
2023/11/12 09:56:10;;;;;;;;;;;;;;;34.28;53.66;100829.38;5101778;27;66691;-34
2023/11/12 09:58:45;;;;;;;;;;;;;;;34.26;53.53;100832.34;5101840;27;71050;-35
2023/11/12 10:01:15;;;;;;;;;;;;;;;34.25;53.53;100828.78;5099997;27;66968;-34
2023/11/12 10:03:50;;;;;;;;;;;;;;;34.25;53.61;100826.06;5103050;27;70278;-35
2023/11/12 10:06:22;;;;;;;;;;;;;;;34.23;53.83;100828.19;5094134;27;65668;-34
2023/11/12 10:08:52;;;;;;;;;;;;;;;34.22;54.06;100825.75;5100416;27;70345;-35
2023/11/12 10:11:23;;;;;;;;;;;;;;;34.22;53.82;100826.56;5101581;27;66581;-34
2023/11/12 10:13:54;;;;;;;;;;;;;;;34.21;54.16;100833.09;5101276;27;70554;-34
2023/11/12 10:16:32;;;;;;;;;;;;;;;34.20;54.46;100836.88;5102673;27;66996;-33
2023/11/12 10:19:13;;;;;;;;;;;;;;;34.17;54.42;100842.81;5102243;27;70747;-35
2023/11/12 10:21:56;;;;;;;;;;;;;;;34.15;54.42;100841.38;5097711;27;66963;-34
2023/11/12 10:24:29;;;;;;;;;;;;;;;34.15;54.74;100849.56;5099914;27;70375;-33
2023/11/12 10:27:03;;;;;;;;;;;;;;;34.13;54.81;100855.25;5099468;27;66507;-34
2023/11/12 10:29:32;;;;;;;;;;;;;;;34.13;54.67;100859.84;5101070;27;69844;-33
2023/11/12 10:32:02;;;;;;;;;;;;;;;34.10;55.91;100861.19;5100612;27;65991;-35
2023/11/12 10:34:33;;;;;;;;;;;;;;;34.10;55.80;100860.34;5100442;27;69287;-34
2023/11/12 10:37:04;;;;;;;;;;;;;;;34.03;57.03;100860.47;5102865;27;66316;-35
2023/11/12 10:39:35;;;;;;;;;;;;;;;34.05;57.09;100863.81;5101720;27;69326;-34
2023/11/12 10:42:08;;;;;;;;;;;;;;;34.07;56.96;100883.44;5103249;27;65961;-36
2023/11/12 10:44:39;;;;;;;;;;;;;;;34.04;57.95;100883.88;5093011;27;70110;-36
2023/11/12 10:47:11;;;;;;;;;;;;;;;34.04;58.73;100894.78;5100305;27;66881;-35
2023/11/12 10:49:41;;;;;;;;;;;;;;;33.99;59.36;100897.38;5097948;27;70680;-34
2023/11/12 10:52:12;;;;;;;;;;;;;;;34.00;58.68;100899.88;5095616;27;66060;-36
2023/11/12 10:54:43;;;;;;;;;;;;;;;34.00;58.04;100904.50;5096496;27;69153;-35
2023/11/12 10:57:13;;;;;;;;;;;;;;;33.98;58.46;100906.63;5097072;27;66784;-35
2023/11/12 10:59:44;;;;;;;;;;;;;;;33.97;58.83;100915.88;5094006;27;70575;-36
2023/11/12 11:02:19;;;;;;;;;;;;;;;33.94;58.37;100921.78;5095136;27;65659;-35
2023/11/12 11:04:49;;;;;;;;;;;;;;;33.92;58.25;100918.47;5098404;27;70642;-37
2023/11/12 11:07:18;;;;;;;;;;;;;;;33.93;57.92;100933.72;5098312;27;66937;-36
2023/11/12 11:09:49;;;;;;;;;;;;;;;33.89;58.76;100930.66;5095551;27;70377;-35
2023/11/12 11:12:19;;;;;;;;;;;;;;;33.90;58.45;100942.38;5085591;27;65922;-37
2023/11/12 11:14:49;;;;;;;;;;;;;;;33.47;62.56;100965.34;5094292;27;69193;-36
2023/11/12 11:17:37;;;;;;;;;;;;;;;33.25;63.88;100995.81;5094702;27;65667;-39
2023/11/12 11:20:11;;;;;;;;;;;;;;;33.36;63.36;101002.34;5090208;27;68814;-35
2023/11/12 11:22:41;;;;;;;;;;;;;;;33.51;62.41;101010.03;5097093;27;66526;-35
2023/11/12 11:25:29;;;;;;;;;;;;;;;33.58;62.43;100994.47;5102373;27;70384;-37
2023/11/12 11:28:17;;;;;;;;;;;;;;;33.63;61.99;101000.03;5101553;27;67086;-36
2023/11/12 11:31:05;;;;;;;;;;;;;;;33.65;61.47;100989.72;5101376;27;69845;-35
2023/11/12 11:33:48;;;;;;;;;;;;;;;33.65;61.57;101000.59;5068480;27;66335;-37
2023/11/12 11:36:19;;;;;;;;;;;;;;;33.66;61.56;100996.81;5100564;27;70525;-36
2023/11/12 11:41:34;;;;;;;;;;;;;;;33.66;61.37;101013.16;5100199;27;70498;-34
2023/11/12 11:44:22;;;;;;;;;;;;;;;33.66;61.25;101017.78;5102513;27;65920;-37
2023/11/12 11:47:14;;;;;;;;;;;;;;;33.65;61.32;101016.91;5096864;27;70369;-36
2023/11/12 11:49:48;;;;;;;;;;;;;;;33.64;61.58;101015.28;5102133;27;65820;-38
2023/11/12 11:52:20;;;;;;;;;;;;;;;33.62;61.54;101014.66;5100997;27;70513;-34
2023/11/12 11:55:16;;;;;;;;;;;;;;;33.61;61.47;101020.38;5095157;27;65701;-37
2023/11/12 11:57:47;;;;;;;;;;;;;;;33.58;62.25;101032.53;5099651;27;70355;-36
2023/11/12 12:00:17;;;;;;;;;;;;;;;33.55;62.30;101030.28;5102588;27;66993;-36
2023/11/12 12:02:47;;;;;;;;;;;;;;;33.54;62.22;101042.22;5101022;27;70401;-37
2023/11/12 12:05:28;;;;;;;;;;;;;;;33.52;62.31;101055.22;5100337;27;66210;-35
2023/11/12 12:08:03;;;;;;;;;;;;;;;33.50;62.10;101057.34;5099473;27;70461;-36
2023/11/12 12:10:33;;;;;;;;;;;;;;;33.47;62.35;101069.50;5082815;27;66630;-36
2023/11/12 12:13:08;;;;;;;;;;;;;;;33.46;62.36;101072.44;5101885;27;69955;-36
2023/11/12 12:15:44;;;;;;;;;;;;;;;33.42;62.86;101077.53;5082486;27;66843;-35
2023/11/12 12:18:23;;;;;;;;;;;;;;;33.41;62.62;101080.50;5083243;27;70652;-39
2023/11/12 12:20:54;;;;;;;;;;;;;;;33.38;62.56;101088.06;5102562;27;66705;-38
2023/11/12 12:23:25;;;;;;;;;;;;;;;33.37;62.87;101090.97;5099443;27;70237;-35
2023/11/12 12:25:55;;;;;;;;;;;;;;;33.34;62.87;101105.88;5096144;27;66698;-36
2023/11/12 12:28:34;;;;;;;;;;;;;;;33.31;62.93;101109.06;5068299;27;69751;-36
2023/11/12 12:31:04;;;;;;;;;;;;;;;33.29;63.49;101108.47;5076335;27;67394;-36
2023/11/12 12:33:37;;;;;;;;;;;;;;;33.27;63.32;101113.31;5098100;27;69701;-37
2023/11/12 12:36:13;;;;;;;;;;;;;;;33.07;67.09;101118.19;5092703;27;66060;-35
2023/11/12 12:39:15;;;;;;;;;;;;;;;32.91;69.26;101120.47;5094396;27;70845;-34
2023/11/12 12:41:45;;;;;;;;;;;;;;;32.79;71.46;101113.28;5054560;27;67210;-37
2023/11/12 12:44:19;;;;;;;;;;;;;;;32.75;71.99;101120.25;5077339;27;70219;-36
2023/11/12 12:46:54;;;;;;;;;;;;;;;32.71;72.69;101119.88;5091486;27;66531;-36
2023/11/12 12:49:28;;;;;;;;;;;;;;;32.67;73.16;101124.91;5089207;27;70173;-35
2023/11/12 12:52:02;;;;;;;;;;;;;;;32.65;73.52;101126.19;5089192;27;66057;-36
2023/11/12 12:54:33;;;;;;;;;;;;;;;32.62;73.97;101126.66;5089316;27;71585;-36
2023/11/12 12:57:03;;;;;;;;;;;;;;;32.62;73.75;101132.09;5089046;27;66672;-37
2023/11/12 12:59:39;;;;;;;;;;;;;;;32.60;74.36;101132.31;5094073;27;69147;-37